Time;durP1;ratioP1;P1;durP2;ratioP2;P2;SDS_P1;SDS_P2;PMS_P1;PMS_P2;Temp;Humidity;BMP_temperature;BMP_pressure;BME280_temperature;BME280_humidity;BME280_pressure;Samples;Min_cycle;Max_cycle;Signal;HPM_P1;HPM_P2
2022/04/10 00:01:53;;;;;;;;;77.20;69.60;24.60;99.90;;;;;;5060163;28;8747;-69
2022/04/10 00:04:20;;;;;;;;;80.60;71.40;24.50;99.90;;;;;;5040272;28;8773;-68
2022/04/10 00:06:46;;;;;;;;;80.80;71.80;24.50;99.90;;;;;;5039994;28;9394;-68
2022/04/10 00:09:13;;;;;;;;;75.20;67.60;24.50;99.90;;;;;;5022748;28;8860;-69
2022/04/10 00:11:40;;;;;;;;;84.80;76.60;24.50;99.90;;;;;;5039772;28;9454;-68
2022/04/10 00:14:07;;;;;;;;;78.80;72.20;24.60;99.90;;;;;;5040379;28;8765;-69
2022/04/10 00:16:37;;;;;;;;;77.60;73.20;24.50;99.90;;;;;;5039622;28;8757;-69
2022/04/10 00:19:04;;;;;;;;;81.80;73.80;24.60;99.90;;;;;;5040154;28;8764;-69
2022/04/10 00:21:32;;;;;;;;;82.00;74.80;24.60;99.90;;;;;;5059679;28;8765;-68
2022/04/10 00:23:59;;;;;;;;;85.60;73.40;24.60;99.90;;;;;;5059237;28;9430;-68
2022/04/10 00:26:25;;;;;;;;;85.20;74.80;24.70;99.90;;;;;;5053833;28;8889;-68
2022/04/10 00:28:53;;;;;;;;;93.20;80.40;24.70;99.90;;;;;;5071667;28;8754;-69
2022/04/10 00:31:22;;;;;;;;;85.40;81.00;24.70;99.90;;;;;;5060395;28;8722;-68
2022/04/10 00:33:49;;;;;;;;;81.20;72.20;24.70;99.90;;;;;;5060007;28;9438;-68
2022/04/10 00:36:16;;;;;;;;;84.20;77.00;24.70;99.90;;;;;;5023673;28;8791;-68
2022/04/10 00:38:42;;;;;;;;;84.60;74.80;24.70;99.90;;;;;;5039637;28;9524;-68
2022/04/10 00:41:09;;;;;;;;;80.40;70.40;24.70;99.90;;;;;;5039951;28;8761;-68
2022/04/10 00:43:38;;;;;;;;;82.40;71.80;24.70;99.90;;;;;;5039287;28;8835;-68
2022/04/10 00:46:05;;;;;;;;;72.80;62.20;24.80;99.90;;;;;;5023174;28;8911;-68
2022/04/10 00:48:32;;;;;;;;;79.80;68.80;24.70;99.90;;;;;;5031092;28;8757;-68
2022/04/10 00:53:44;;;;;;;;;82.20;72.60;24.80;99.90;;;;;;5058712;28;8771;-69
2022/04/10 00:56:10;;;;;;;;;72.40;61.20;24.90;99.90;;;;;;5040921;28;8758;-69
2022/04/10 00:58:37;;;;;;;;;75.00;64.20;24.80;99.90;;;;;;5041429;28;8783;-69
2022/04/10 01:01:04;;;;;;;;;75.80;65.60;24.90;99.90;;;;;;5059251;28;8751;-68
2022/04/10 01:03:34;;;;;;;;;77.00;67.60;25.00;99.90;;;;;;5058693;28;8783;-69
2022/04/10 01:06:00;;;;;;;;;80.80;70.80;25.10;99.90;;;;;;5042690;28;8760;-69
2022/04/10 01:08:27;;;;;;;;;80.20;69.40;25.20;99.90;;;;;;5021411;28;8792;-68
2022/04/10 01:10:53;;;;;;;;;76.00;66.40;25.00;99.90;;;;;;5021880;28;8921;-69
2022/04/10 01:13:20;;;;;;;;;82.80;70.80;25.00;99.90;;;;;;5039102;28;8772;-68
2022/04/10 01:15:47;;;;;;;;;77.00;68.00;25.10;99.90;;;;;;5027378;28;8763;-69
2022/04/10 01:18:13;;;;;;;;;74.80;66.60;25.20;99.90;;;;;;5038760;28;8793;-68
2022/04/10 01:20:40;;;;;;;;;82.80;73.80;25.30;99.90;;;;;;5034092;28;8848;-69
2022/04/10 01:23:07;;;;;;;;;84.60;75.60;25.30;99.90;;;;;;5040944;28;8805;-69
2022/04/10 01:25:34;;;;;;;;;79.00;69.00;25.30;99.90;;;;;;5058257;28;8877;-69
2022/04/10 01:28:01;;;;;;;;;74.40;66.40;25.40;99.90;;;;;;5059256;28;8738;-69
2022/04/10 01:30:28;;;;;;;;;79.20;72.00;25.30;99.90;;;;;;5073844;28;8739;-68
2022/04/10 01:32:55;;;;;;;;;71.80;66.00;25.30;99.90;;;;;;5073905;28;9045;-69
2022/04/10 01:35:23;;;;;;;;;80.80;70.80;25.40;99.90;;;;;;5047454;28;8808;-68
2022/04/10 01:37:49;;;;;;;;;78.40;69.40;25.40;99.90;;;;;;5020954;28;8802;-68
2022/04/10 01:40:16;;;;;;;;;75.20;64.00;25.50;99.90;;;;;;5021892;28;8737;-69
2022/04/10 01:42:43;;;;;;;;;77.80;65.20;25.60;99.90;;;;;;5038509;28;8757;-68
2022/04/10 01:45:09;;;;;;;;;82.00;70.20;25.60;99.90;;;;;;5038106;28;8737;-68
2022/04/10 01:47:37;;;;;;;;;81.40;70.40;25.60;99.90;;;;;;5037989;28;8772;-68
2022/04/10 01:50:04;;;;;;;;;74.40;63.40;25.70;99.90;;;;;;5046307;28;8751;-69
2022/04/10 01:52:30;;;;;;;;;75.80;62.80;25.70;99.90;;;;;;5058214;28;8904;-68
2022/04/10 01:54:57;;;;;;;;;75.60;62.40;25.80;99.90;;;;;;5059051;28;8804;-69
2022/04/10 01:57:24;;;;;;;;;75.00;61.40;25.80;99.90;;;;;;5058027;28;8739;-68
2022/04/10 01:59:50;;;;;;;;;80.60;67.00;25.90;99.90;;;;;;5058487;28;8735;-69
2022/04/10 02:02:17;;;;;;;;;79.40;69.60;26.00;99.90;;;;;;5040689;28;8770;-68
2022/04/10 02:04:44;;;;;;;;;77.20;64.40;26.00;99.90;;;;;;5034773;28;8990;-68
2022/04/10 02:07:10;;;;;;;;;79.40;66.00;26.00;99.90;;;;;;5037617;28;8750;-69
2022/04/10 02:09:37;;;;;;;;;74.80;59.20;25.90;99.90;;;;;;5019813;28;9453;-69
2022/04/10 02:12:04;;;;;;;;;80.40;70.00;26.00;99.90;;;;;;5052968;28;8847;-69
2022/04/10 02:14:33;;;;;;;;;80.80;68.60;26.00;99.90;;;;;;5037527;28;10016;-69
2022/04/10 02:17:00;;;;;;;;;77.40;67.80;26.10;99.90;;;;;;5037835;28;8772;-69
2022/04/10 02:19:27;;;;;;;;;72.40;61.60;26.20;99.90;;;;;;5040558;28;9470;-68
2022/04/10 02:21:57;;;;;;;;;81.20;69.40;26.20;99.90;;;;;;5040185;28;8762;-69
2022/04/10 02:24:24;;;;;;;;;78.40;67.20;26.30;99.90;;;;;;5039945;28;8750;-68
2022/04/10 02:26:50;;;;;;;;;77.40;69.80;26.30;99.90;;;;;;5057495;28;8746;-69
2022/04/10 02:29:17;;;;;;;;;77.20;64.40;26.30;99.90;;;;;;5057208;28;8747;-69
2022/04/10 02:31:44;;;;;;;;;74.40;65.40;26.40;99.90;;;;;;5057257;28;8723;-69
2022/04/10 02:34:10;;;;;;;;;72.60;56.40;26.40;99.90;;;;;;5057155;28;8731;-69
2022/04/10 02:36:37;;;;;;;;;73.20;61.00;26.40;99.90;;;;;;5036677;28;8764;-69
2022/04/10 02:39:04;;;;;;;;;73.00;63.40;26.50;99.90;;;;;;5036984;28;8732;-69
2022/04/10 02:41:30;;;;;;;;;79.80;69.80;26.50;99.90;;;;;;5037096;28;8768;-69
2022/04/10 02:43:57;;;;;;;;;77.20;64.20;26.70;99.90;;;;;;5037202;28;8765;-69
2022/04/10 02:46:24;;;;;;;;;79.20;68.40;26.70;99.90;;;;;;5037194;28;8852;-69
2022/04/10 02:48:53;;;;;;;;;76.40;67.40;26.70;99.90;;;;;;5037119;28;8773;-69
2022/04/10 02:51:20;;;;;;;;;73.60;64.00;26.80;99.90;;;;;;5037688;28;8759;-69
2022/04/10 02:53:47;;;;;;;;;75.80;63.80;26.80;99.90;;;;;;5056666;28;8766;-69
2022/04/10 02:56:13;;;;;;;;;78.40;70.60;26.90;99.90;;;;;;5022569;28;8770;-69
2022/04/10 02:58:40;;;;;;;;;77.60;65.00;26.90;99.90;;;;;;5056782;28;9446;-69
2022/04/10 03:01:07;;;;;;;;;78.40;67.60;26.90;99.90;;;;;;5057550;28;8751;-68
2022/04/10 03:03:33;;;;;;;;;77.40;67.80;26.90;99.90;;;;;;5055793;28;8786;-68
2022/04/10 03:06:00;;;;;;;;;76.00;63.80;27.10;99.90;;;;;;5056253;28;9888;-69
2022/04/10 03:08:27;;;;;;;;;75.80;64.60;27.00;99.90;;;;;;5018962;28;8768;-68
2022/04/10 03:10:53;;;;;;;;;70.20;58.00;27.10;99.90;;;;;;5036723;28;8764;-69
2022/04/10 03:13:20;;;;;;;;;73.80;65.20;27.10;99.90;;;;;;5037083;28;8745;-68
2022/04/10 03:15:47;;;;;;;;;74.40;61.40;27.20;99.90;;;;;;5036797;28;8744;-68
2022/04/10 03:18:13;;;;;;;;;75.80;65.20;27.20;99.90;;;;;;5036432;28;8761;-69
2022/04/10 03:20:40;;;;;;;;;74.80;61.80;27.10;99.90;;;;;;5049420;28;8897;-69
2022/04/10 03:23:10;;;;;;;;;76.80;66.80;27.10;99.90;;;;;;5038896;28;8779;-69
2022/04/10 03:25:37;;;;;;;;;78.80;69.00;27.40;99.90;;;;;;5022633;28;9904;-69
2022/04/10 03:28:04;;;;;;;;;81.80;69.40;27.40;99.90;;;;;;5057050;28;8726;-69
2022/04/10 03:30:30;;;;;;;;;72.60;63.60;27.40;99.90;;;;;;5056199;28;8861;-69
2022/04/10 03:32:57;;;;;;;;;75.20;60.80;27.40;99.90;;;;;;5056560;28;8759;-69
2022/04/10 03:35:24;;;;;;;;;73.80;61.80;27.40;99.90;;;;;;5045158;28;8910;-68
2022/04/10 03:37:50;;;;;;;;;75.80;62.60;27.60;99.90;;;;;;5036569;28;9355;-68
2022/04/10 03:40:17;;;;;;;;;73.00;61.60;27.60;99.90;;;;;;5036853;28;8753;-66
2022/04/10 03:42:44;;;;;;;;;73.20;62.60;27.80;99.90;;;;;;5036536;28;8855;-68
2022/04/10 03:45:11;;;;;;;;;76.80;64.40;27.70;99.90;;;;;;5036704;28;8729;-69
2022/04/10 03:47:37;;;;;;;;;76.40;66.20;27.80;99.90;;;;;;5018735;28;8803;-68
2022/04/10 03:50:05;;;;;;;;;77.80;64.20;27.80;99.90;;;;;;5044520;28;8759;-68
2022/04/10 03:52:32;;;;;;;;;74.20;64.40;27.80;99.90;;;;;;5071333;28;8828;-68
2022/04/10 03:54:58;;;;;;;;;77.60;70.20;28.10;99.90;;;;;;5056721;28;8742;-68
2022/04/10 03:57:25;;;;;;;;;77.00;70.00;28.00;99.90;;;;;;5056098;28;8739;-68
2022/04/10 03:59:52;;;;;;;;;78.20;73.20;27.90;99.90;;;;;;5071818;28;8751;-69
2022/04/10 04:02:18;;;;;;;;;82.40;74.00;28.20;99.90;;;;;;5055987;28;9526;-67
2022/04/10 04:04:45;;;;;;;;;84.60;77.20;28.30;99.90;;;;;;5032933;28;8823;-68
2022/04/10 04:07:12;;;;;;;;;78.20;71.20;28.40;99.90;;;;;;5019371;28;8769;-68
2022/04/10 04:09:39;;;;;;;;;81.40;74.00;28.20;99.90;;;;;;5035810;28;8764;-68
2022/04/10 04:12:06;;;;;;;;;77.80;66.20;28.10;99.90;;;;;;5036020;28;8745;-69
2022/04/10 04:14:33;;;;;;;;;79.00;68.40;28.20;99.90;;;;;;5018569;28;8745;-68
2022/04/10 04:16:59;;;;;;;;;80.00;73.00;28.10;99.90;;;;;;5036041;28;8771;-69
2022/04/10 04:19:26;;;;;;;;;78.40;70.40;28.30;99.90;;;;;;5053795;28;8739;-68
2022/04/10 04:21:56;;;;;;;;;78.80;73.00;28.40;99.90;;;;;;5038977;28;8719;-68
2022/04/10 04:24:22;;;;;;;;;80.80;76.00;28.30;99.90;;;;;;5055556;28;8755;-68
2022/04/10 04:26:52;;;;;;;;;78.60;68.60;28.30;99.90;;;;;;5055738;28;8734;-69
2022/04/10 04:29:19;;;;;;;;;81.60;74.40;28.10;99.90;;;;;;5056025;28;8808;-67
2022/04/10 04:31:45;;;;;;;;;77.80;71.80;28.30;99.90;;;;;;5059838;28;8856;-68
2022/04/10 04:34:13;;;;;;;;;86.00;78.80;28.50;99.90;;;;;;5059195;28;8781;-68
2022/04/10 04:36:40;;;;;;;;;78.00;72.80;28.70;99.90;;;;;;5039458;28;8745;-69
2022/04/10 04:39:07;;;;;;;;;79.20;72.40;29.00;99.90;;;;;;5039341;28;8733;-68
2022/04/10 04:41:33;;;;;;;;;77.20;69.40;28.80;99.90;;;;;;5021967;28;9156;-69
2022/04/10 04:44:00;;;;;;;;;78.00;73.40;28.80;99.90;;;;;;5031819;28;8836;-69
2022/04/10 04:46:27;;;;;;;;;81.40;75.80;28.60;99.90;;;;;;5052211;28;8768;-68
2022/04/10 04:48:54;;;;;;;;;85.80;80.40;28.60;99.90;;;;;;5040225;28;8780;-68
2022/04/10 04:51:21;;;;;;;;;82.20;73.20;28.80;99.90;;;;;;5057689;28;8755;-68
2022/04/10 04:53:47;;;;;;;;;76.00;70.00;28.60;99.90;;;;;;5058785;28;8913;-68
2022/04/10 04:56:15;;;;;;;;;78.80;67.80;28.70;99.90;;;;;;5059829;28;8857;-68
2022/04/10 04:58:43;;;;;;;;;82.40;73.80;28.90;99.90;;;;;;5059002;28;8751;-68
2022/04/10 05:01:10;;;;;;;;;75.00;67.80;29.00;99.90;;;;;;5059588;28;8857;-68
2022/04/10 05:03:36;;;;;;;;;79.00;72.20;29.00;99.90;;;;;;5058565;28;8799;-68
2022/04/10 05:06:03;;;;;;;;;76.40;68.00;29.00;99.90;;;;;;5042766;28;8785;-68
2022/04/10 05:08:30;;;;;;;;;78.40;69.00;29.10;99.90;;;;;;5054352;28;8776;-68
2022/04/10 05:10:56;;;;;;;;;76.60;68.00;29.20;99.90;;;;;;5038743;28;8765;-68
2022/04/10 05:13:23;;;;;;;;;78.80;68.60;29.20;99.90;;;;;;5039118;28;8737;-68
2022/04/10 05:15:50;;;;;;;;;78.80;69.20;29.20;99.90;;;;;;5039273;28;8717;-68
2022/04/10 05:18:19;;;;;;;;;80.00;73.80;29.30;99.90;;;;;;5038967;28;8781;-68
2022/04/10 05:20:46;;;;;;;;;77.00;69.20;29.30;99.90;;;;;;5051985;28;8820;-68
2022/04/10 05:23:16;;;;;;;;;80.20;73.60;29.30;99.90;;;;;;5074180;28;8795;-68
2022/04/10 05:25:43;;;;;;;;;81.60;72.60;29.40;99.90;;;;;;5050642;28;9446;-68
2022/04/10 05:28:10;;;;;;;;;77.60;70.60;29.40;99.90;;;;;;5055320;28;8719;-69
2022/04/10 05:30:36;;;;;;;;;77.20;69.20;29.60;99.90;;;;;;5058450;28;8781;-68
2022/04/10 05:33:03;;;;;;;;;78.60;74.20;29.60;99.90;;;;;;5058601;28;8800;-68
2022/04/10 05:35:30;;;;;;;;;81.00;73.60;29.70;99.90;;;;;;5046375;28;8753;-68
2022/04/10 05:37:56;;;;;;;;;76.20;69.00;29.70;99.90;;;;;;5038470;28;8803;-68
2022/04/10 05:40:23;;;;;;;;;77.00;68.40;29.60;99.90;;;;;;5038697;28;8725;-68
2022/04/10 05:42:49;;;;;;;;;77.60;69.40;29.50;99.90;;;;;;5038609;28;8759;-68
2022/04/10 05:45:16;;;;;;;;;79.40;71.00;29.50;99.90;;;;;;5038241;28;9418;-69
2022/04/10 05:47:43;;;;;;;;;78.80;72.80;29.80;99.90;;;;;;5038331;28;8838;-68
2022/04/10 05:50:11;;;;;;;;;79.20;73.60;29.70;99.90;;;;;;5047212;28;8758;-68
2022/04/10 05:52:43;;;;;;;;;72.60;63.20;29.80;99.90;;;;;;5057474;28;8739;-68
2022/04/10 05:55:13;;;;;;;;;74.00;65.40;30.00;99.90;;;;;;5041596;28;8873;-68
2022/04/10 05:57:40;;;;;;;;;75.00;64.40;30.00;99.90;;;;;;5057540;28;9157;-68
2022/04/10 06:00:10;;;;;;;;;82.20;74.00;29.90;99.90;;;;;;5040379;28;8755;-68
2022/04/10 06:02:37;;;;;;;;;78.80;70.60;30.00;99.90;;;;;;5057479;28;8770;-68
2022/04/10 06:05:04;;;;;;;;;76.60;70.60;30.00;99.90;;;;;;5049738;28;8787;-68
2022/04/10 06:07:31;;;;;;;;;79.00;71.80;29.90;99.90;;;;;;5037829;28;8731;-68
2022/04/10 06:09:58;;;;;;;;;74.80;62.60;30.00;99.90;;;;;;5038778;28;8729;-68
2022/04/10 06:12:26;;;;;;;;;78.60;72.00;30.10;99.90;;;;;;5037393;28;9414;-68
2022/04/10 06:14:52;;;;;;;;;79.60;69.80;30.30;99.90;;;;;;5037912;28;9401;-68
2022/04/10 06:17:19;;;;;;;;;78.20;70.20;30.10;99.90;;;;;;5037448;28;8784;-68
2022/04/10 06:19:46;;;;;;;;;78.60;67.00;30.40;99.90;;;;;;5043335;28;8762;-68
2022/04/10 06:22:14;;;;;;;;;76.80;70.40;30.30;99.90;;;;;;5058252;28;8805;-68
2022/04/10 06:24:41;;;;;;;;;72.00;63.20;30.30;99.90;;;;;;5057375;28;8723;-69
2022/04/10 06:27:08;;;;;;;;;73.60;61.40;30.40;99.90;;;;;;5057561;28;9387;-69
2022/04/10 06:29:34;;;;;;;;;74.60;66.40;30.40;99.90;;;;;;5057725;28;8866;-68
2022/04/10 06:32:01;;;;;;;;;76.00;64.20;30.40;99.90;;;;;;5057462;28;8755;-69
2022/04/10 06:34:28;;;;;;;;;75.40;66.20;30.40;99.90;;;;;;5054174;28;8819;-68
2022/04/10 06:36:55;;;;;;;;;75.40;65.60;30.50;99.90;;;;;;5038428;28;8748;-68
2022/04/10 06:39:21;;;;;;;;;77.80;68.60;30.60;99.90;;;;;;5052678;28;8761;-68
2022/04/10 06:41:48;;;;;;;;;72.40;61.40;30.50;99.90;;;;;;5020171;28;8788;-68
2022/04/10 06:44:15;;;;;;;;;74.00;63.60;30.60;99.90;;;;;;5037496;28;8753;-69
2022/04/10 06:46:44;;;;;;;;;73.60;60.80;30.80;99.90;;;;;;5052525;28;8772;-68
2022/04/10 06:49:14;;;;;;;;;75.40;66.20;30.70;99.90;;;;;;5038854;28;8749;-68
2022/04/10 06:51:41;;;;;;;;;73.40;61.20;30.80;99.90;;;;;;5056962;28;8779;-68
2022/04/10 06:54:07;;;;;;;;;71.00;58.20;30.60;99.90;;;;;;5039305;28;8818;-69
2022/04/10 06:56:34;;;;;;;;;69.20;54.80;30.70;99.90;;;;;;5072338;28;8783;-69
2022/04/10 06:59:03;;;;;;;;;70.60;60.40;30.90;99.90;;;;;;5057909;28;8767;-68
2022/04/10 07:01:30;;;;;;;;;75.00;63.80;30.90;99.90;;;;;;5056979;28;8764;-68
2022/04/10 07:03:58;;;;;;;;;74.60;64.40;30.80;99.90;;;;;;5057666;28;8862;-64
2022/04/10 07:06:24;;;;;;;;;70.80;57.20;30.70;99.90;;;;;;5037451;28;8877;-68
2022/04/10 07:08:51;;;;;;;;;71.20;58.60;30.60;99.90;;;;;;5019463;28;8766;-69
2022/04/10 07:11:18;;;;;;;;;70.20;57.40;30.60;99.90;;;;;;5036561;28;8809;-68
2022/04/10 07:13:44;;;;;;;;;67.20;57.20;30.90;99.90;;;;;;5019324;28;8920;-69
2022/04/10 07:16:11;;;;;;;;;69.20;56.80;31.00;99.90;;;;;;5019565;28;8715;-68
2022/04/10 07:18:38;;;;;;;;;68.40;53.40;30.90;99.90;;;;;;5036715;28;9275;-68
2022/04/10 07:21:05;;;;;;;;;66.80;52.20;30.90;99.90;;;;;;5053082;28;8745;-68
2022/04/10 07:23:43;;;;;;;;;64.60;53.60;30.90;99.90;;;;;;5056321;28;8782;-68
2022/04/10 07:26:11;;;;;;;;;67.80;53.00;30.80;99.90;;;;;;5056645;28;8744;-68
2022/04/10 07:28:38;;;;;;;;;72.00;55.00;30.70;99.90;;;;;;5038553;28;8744;-68
2022/04/10 07:31:06;;;;;;;;;64.00;52.60;30.60;99.90;;;;;;5039546;28;9413;-69
2022/04/10 07:33:32;;;;;;;;;66.20;53.60;30.70;99.90;;;;;;5038243;28;8826;-68
2022/04/10 07:35:59;;;;;;;;;63.40;50.00;31.00;99.90;;;;;;5040726;28;8800;-68
2022/04/10 07:38:26;;;;;;;;;61.00;48.00;31.20;99.60;;;;;;5036165;28;8773;-68
2022/04/10 07:40:55;;;;;;;;;61.20;50.60;31.60;99.10;;;;;;5036613;28;8762;-68
2022/04/10 07:43:22;;;;;;;;;60.20;47.40;31.40;97.40;;;;;;5035115;28;8766;-68
2022/04/10 07:48:34;;;;;;;;;62.00;48.80;31.40;98.30;;;;;;5036470;28;8738;-68
2022/04/10 07:51:01;;;;;;;;;65.00;51.80;31.60;98.10;;;;;;5051967;28;8852;-68
2022/04/10 07:53:31;;;;;;;;;64.00;49.80;31.20;99.20;;;;;;5071333;28;8885;-68
2022/04/10 07:55:58;;;;;;;;;65.00;53.20;31.20;98.10;;;;;;5056323;28;8871;-69
2022/04/10 07:58:24;;;;;;;;;65.80;52.20;31.40;99.00;;;;;;5056356;28;8725;-63
2022/04/10 08:00:51;;;;;;;;;66.20;51.80;31.20;99.00;;;;;;5057246;28;8771;-68
2022/04/10 08:03:18;;;;;;;;;63.20;51.60;31.50;99.90;;;;;;5056227;28;8772;-69
2022/04/10 08:05:44;;;;;;;;;65.20;51.00;31.60;98.90;;;;;;5045433;28;8873;-68
2022/04/10 08:08:11;;;;;;;;;63.40;49.80;31.50;98.20;;;;;;5040372;28;8754;-69
2022/04/10 08:10:39;;;;;;;;;62.80;51.80;31.60;98.40;;;;;;5022181;28;8765;-68
2022/04/10 08:13:08;;;;;;;;;64.40;51.40;31.30;98.30;;;;;;5040804;28;8809;-69
2022/04/10 08:15:35;;;;;;;;;59.80;49.00;31.50;98.30;;;;;;5039974;28;8822;-69
2022/04/10 08:18:02;;;;;;;;;68.60;51.40;31.70;97.10;;;;;;5022421;28;8734;-68
2022/04/10 08:20:30;;;;;;;;;61.60;50.00;31.70;96.40;;;;;;5066367;28;8883;-68
2022/04/10 08:22:59;;;;;;;;;64.60;51.40;31.60;96.90;;;;;;5059899;28;8764;-69
2022/04/10 08:25:25;;;;;;;;;64.20;50.40;31.60;96.80;;;;;;5042181;28;8721;-68
2022/04/10 08:27:52;;;;;;;;;63.20;50.20;31.90;96.10;;;;;;5060500;28;8741;-68
2022/04/10 08:30:19;;;;;;;;;60.80;50.00;31.80;96.70;;;;;;5059699;28;8759;-68
2022/04/10 08:32:45;;;;;;;;;60.60;48.80;31.80;96.50;;;;;;5050113;28;8740;-69
2022/04/10 08:35:13;;;;;;;;;57.60;47.40;31.60;95.50;;;;;;5050889;28;8806;-69
2022/04/10 08:37:40;;;;;;;;;62.40;50.80;31.60;95.50;;;;;;5054915;28;8751;-68
2022/04/10 08:40:07;;;;;;;;;63.40;49.20;31.40;96.40;;;;;;5040466;28;8742;-69
2022/04/10 08:42:34;;;;;;;;;61.40;48.20;31.60;95.80;;;;;;5054759;28;8808;-68
2022/04/10 08:45:00;;;;;;;;;59.40;48.00;31.50;95.60;;;;;;5021719;28;8746;-69
2022/04/10 08:47:27;;;;;;;;;63.20;50.40;31.30;96.40;;;;;;5039334;28;8757;-69
2022/04/10 08:49:54;;;;;;;;;63.00;51.20;31.40;97.10;;;;;;5028544;28;9428;-68
2022/04/10 08:52:21;;;;;;;;;57.00;45.80;31.70;95.80;;;;;;5075025;28;8721;-68
2022/04/10 08:54:49;;;;;;;;;66.00;51.40;31.70;94.40;;;;;;5058973;28;8746;-68
2022/04/10 08:57:16;;;;;;;;;64.60;49.60;31.70;95.10;;;;;;5059077;28;8704;-69
2022/04/10 08:59:43;;;;;;;;;52.20;44.00;31.80;95.20;;;;;;5041384;28;8739;-69
2022/04/10 09:02:13;;;;;;;;;60.80;48.40;31.90;94.60;;;;;;5041124;28;9391;-68
2022/04/10 09:04:40;;;;;;;;;56.80;44.80;31.80;94.50;;;;;;5054119;28;8768;-69
2022/04/10 09:07:11;;;;;;;;;61.20;50.60;31.70;94.40;;;;;;5039718;28;8706;-69
2022/04/10 09:09:41;;;;;;;;;60.60;49.00;31.80;94.40;;;;;;5038465;28;8759;-69
2022/04/10 09:12:08;;;;;;;;;62.00;47.80;31.90;93.70;;;;;;5038755;28;8709;-69
2022/04/10 09:14:39;;;;;;;;;60.60;49.20;31.70;95.20;;;;;;5038524;28;8729;-69
2022/04/10 09:17:19;;;;;;;;;60.40;49.40;31.60;94.00;;;;;;5038226;28;8721;-68
2022/04/10 09:19:50;;;;;;;;;62.60;50.60;31.50;93.50;;;;;;5044147;28;9249;-69
2022/04/10 09:22:37;;;;;;;;;60.20;49.40;31.40;93.00;;;;;;5041704;28;8824;-69
2022/04/10 09:25:19;;;;;;;;;62.50;48.75;31.50;92.20;;;;;;5058971;28;8738;-69
2022/04/10 09:27:46;;;;;;;;;59.80;48.60;31.50;93.10;;;;;;5024241;28;8840;-68
2022/04/10 09:30:14;;;;;;;;;60.80;50.40;31.20;93.80;;;;;;5057166;28;8831;-69
2022/04/10 09:32:51;;;;;;;;;58.00;46.80;31.20;94.50;;;;;;5058151;28;9609;-68
2022/04/10 09:35:19;;;;;;;;;61.80;50.00;31.10;95.10;;;;;;5047155;28;8854;-69
2022/04/10 09:37:56;;;;;;;;;64.20;52.00;31.10;95.00;;;;;;5020910;28;8761;-68
2022/04/10 09:40:33;;;;;;;;;64.40;52.00;31.00;97.30;;;;;;5038810;28;8725;-68
2022/04/10 09:43:10;;;;;;;;;64.60;50.60;31.00;98.40;;;;;;5021032;28;8874;-68
2022/04/10 09:45:41;;;;;;;;;65.80;51.80;31.00;97.70;;;;;;5004391;28;9154;-68
2022/04/10 09:48:31;;;;;;;;;48.20;39.20;31.00;97.30;;;;;;5020725;28;8749;-69
2022/04/10 09:51:02;;;;;;;;;63.00;49.60;30.90;97.40;;;;;;5053394;28;8775;-68
2022/04/10 09:53:30;;;;;;;;;63.40;50.40;30.80;97.50;;;;;;5057600;28;8944;-69
2022/04/10 09:56:02;;;;;;;;;62.80;50.40;30.90;96.60;;;;;;5058160;28;8770;-69
2022/04/10 09:58:29;;;;;;;;;66.00;51.80;30.90;96.90;;;;;;5058044;28;8750;-68
2022/04/10 10:00:56;;;;;;;;;54.20;44.20;30.90;97.00;;;;;;5058652;28;8792;-69
2022/04/10 10:03:24;;;;;;;;;63.20;50.40;30.90;96.40;;;;;;5039935;28;8762;-68
2022/04/10 10:05:54;;;;;;;;;66.40;52.60;31.10;96.00;;;;;;5043582;28;8772;-68
2022/04/10 10:08:21;;;;;;;;;64.00;51.60;31.20;96.10;;;;;;5037843;28;8796;-68
2022/04/10 10:10:48;;;;;;;;;62.00;48.00;31.10;96.20;;;;;;5037838;28;8769;-69
2022/04/10 10:13:15;;;;;;;;;65.20;51.00;31.10;95.90;;;;;;5037720;28;8733;-68
2022/04/10 10:15:44;;;;;;;;;66.40;53.60;31.00;96.60;;;;;;5037611;28;8733;-68
2022/04/10 10:18:12;;;;;;;;;68.00;51.80;31.00;95.30;;;;;;5037654;28;8753;-69
2022/04/10 10:20:45;;;;;;;;;63.60;48.80;31.00;95.50;;;;;;5050165;28;8859;-69
2022/04/10 10:23:13;;;;;;;;;65.20;50.00;30.90;96.00;;;;;;5072662;28;8755;-69
2022/04/10 10:26:03;;;;;;;;;65.20;51.40;30.90;95.40;;;;;;5023076;28;8853;-68
2022/04/10 10:28:55;;;;;;;;;66.00;52.60;30.80;95.00;;;;;;5041125;28;8762;-68
2022/04/10 10:31:52;;;;;;;;;66.60;51.60;30.80;94.20;;;;;;5057608;28;8731;-68
2022/04/10 10:34:18;;;;;;;;;62.40;50.00;30.90;94.70;;;;;;5035872;28;8793;-67
2022/04/10 10:36:45;;;;;;;;;60.40;48.40;30.80;95.00;;;;;;5035360;28;8756;-68
2022/04/10 10:39:12;;;;;;;;;66.40;52.20;30.70;95.10;;;;;;5019707;28;9429;-69
2022/04/10 10:41:39;;;;;;;;;61.20;48.60;30.80;95.30;;;;;;5037144;28;8807;-68
2022/04/10 10:44:27;;;;;;;;;65.20;51.80;30.80;95.80;;;;;;5037002;28;8741;-69
2022/04/10 10:46:58;;;;;;;;;61.20;48.60;30.80;97.30;;;;;;5019652;28;8745;-68
2022/04/10 10:49:26;;;;;;;;;62.80;49.00;31.00;99.90;;;;;;5038917;28;8780;-64
2022/04/10 10:51:54;;;;;;;;;59.60;48.60;30.90;99.90;;;;;;5040036;28;8796;-69
2022/04/10 10:54:25;;;;;;;;;68.00;54.60;30.80;99.90;;;;;;5056001;28;8810;-68
2022/04/10 10:56:55;;;;;;;;;66.00;52.40;30.80;99.90;;;;;;5039543;28;8778;-69
2022/04/10 10:59:34;;;;;;;;;65.20;50.80;30.70;99.60;;;;;;5056296;28;8839;-68
2022/04/10 11:02:01;;;;;;;;;64.80;52.20;30.70;99.10;;;;;;5059750;28;8785;-68
2022/04/10 11:04:31;;;;;;;;;64.40;51.80;30.70;98.40;;;;;;5053350;28;8801;-68
2022/04/10 11:07:30;;;;;;;;;64.60;49.80;30.70;98.20;;;;;;5020293;28;8753;-69
2022/04/10 11:10:28;;;;;;;;;64.80;51.20;30.70;98.50;;;;;;5017797;28;8763;-69
2022/04/10 11:12:55;;;;;;;;;66.20;53.00;30.60;98.80;;;;;;5017203;28;8735;-69
2022/04/10 11:15:23;;;;;;;;;62.80;51.00;30.60;98.80;;;;;;5015500;28;8771;-69
2022/04/10 11:17:51;;;;;;;;;64.60;50.80;30.60;98.60;;;;;;5032324;28;8813;-69
2022/04/10 11:20:20;;;;;;;;;62.60;50.40;30.60;99.90;;;;;;5045192;28;8821;-67
2022/04/10 11:22:53;;;;;;;;;66.20;52.80;30.60;99.90;;;;;;5039171;28;8761;-69
2022/04/10 11:25:29;;;;;;;;;66.20;52.60;30.60;99.90;;;;;;5057031;28;8781;-68
2022/04/10 11:28:01;;;;;;;;;66.80;53.20;30.50;99.90;;;;;;5056932;28;8759;-69
2022/04/10 11:30:31;;;;;;;;;71.20;53.20;30.50;99.90;;;;;;5038287;28;8789;-69
2022/04/10 11:32:58;;;;;;;;;68.00;52.80;30.50;99.90;;;;;;5056703;28;8797;-69
2022/04/10 11:35:28;;;;;;;;;66.80;51.20;30.40;99.90;;;;;;5045534;28;8792;-69
2022/04/10 11:37:57;;;;;;;;;56.60;45.80;30.40;99.90;;;;;;5018806;28;8761;-69
2022/04/10 11:40:30;;;;;;;;;67.20;53.00;30.40;99.90;;;;;;5022845;28;8800;-69
2022/04/10 11:42:58;;;;;;;;;62.20;50.40;30.30;98.60;;;;;;5040589;28;9434;-69
2022/04/10 11:45:27;;;;;;;;;67.00;53.20;30.30;97.70;;;;;;5039910;28;8858;-68
2022/04/10 11:47:53;;;;;;;;;67.40;52.20;30.30;99.30;;;;;;5022912;28;8750;-69
2022/04/10 11:50:21;;;;;;;;;62.80;50.00;30.30;99.20;;;;;;5050061;28;8839;-68
2022/04/10 11:53:01;;;;;;;;;66.20;51.80;30.30;99.90;;;;;;5060173;28;8845;-68
2022/04/10 11:55:30;;;;;;;;;70.60;52.60;30.20;99.90;;;;;;5060984;28;8755;-68
2022/04/10 11:57:57;;;;;;;;;71.60;58.80;30.10;99.90;;;;;;5061469;28;8719;-69
2022/04/10 12:00:24;;;;;;;;;68.40;53.60;30.10;99.90;;;;;;5059950;28;8787;-69
2022/04/10 12:02:53;;;;;;;;;69.80;54.40;30.00;99.90;;;;;;5042375;28;8790;-69
2022/04/10 12:05:20;;;;;;;;;68.40;53.60;29.90;99.90;;;;;;5049689;28;8772;-68
2022/04/10 12:07:47;;;;;;;;;71.60;57.40;30.00;99.90;;;;;;5022670;28;8773;-69
2022/04/10 12:10:20;;;;;;;;;69.60;53.60;29.90;99.90;;;;;;5023198;28;8803;-69
2022/04/10 12:12:47;;;;;;;;;69.40;55.00;29.90;99.90;;;;;;5039952;28;8741;-68
2022/04/10 12:15:19;;;;;;;;;65.80;52.20;29.80;99.90;;;;;;5022471;28;8772;-69
2022/04/10 12:17:46;;;;;;;;;67.20;52.80;29.80;99.90;;;;;;5039760;28;8767;-69
2022/04/10 12:20:13;;;;;;;;;68.20;54.80;29.90;99.90;;;;;;5031137;28;8785;-69
2022/04/10 12:22:40;;;;;;;;;73.60;58.20;29.80;99.90;;;;;;5059738;28;8715;-69
2022/04/10 12:25:08;;;;;;;;;72.80;57.60;29.80;99.90;;;;;;5042902;28;8805;-69
2022/04/10 12:27:35;;;;;;;;;71.40;57.60;29.80;99.90;;;;;;5041688;28;8750;-68
2022/04/10 12:30:09;;;;;;;;;73.80;57.20;29.70;99.90;;;;;;5042191;28;9431;-69
2022/04/10 12:32:36;;;;;;;;;69.40;56.60;29.70;99.90;;;;;;5041367;28;8948;-69
2022/04/10 12:35:13;;;;;;;;;67.20;52.40;29.60;99.90;;;;;;5034333;28;8903;-69
2022/04/10 12:38:01;;;;;;;;;61.80;49.80;29.60;99.90;;;;;;5039309;28;8737;-69
2022/04/10 12:40:27;;;;;;;;;66.20;51.00;29.50;99.90;;;;;;5021755;28;8764;-68
2022/04/10 12:43:01;;;;;;;;;67.80;51.80;29.50;99.90;;;;;;5040295;28;8756;-69
2022/04/10 12:45:34;;;;;;;;;63.40;49.80;29.40;99.90;;;;;;5022279;28;8855;-68
2022/04/10 12:48:01;;;;;;;;;65.00;52.40;29.40;99.90;;;;;;5039309;28;8840;-69